Time;durP1;ratioP1;P1;durP2;ratioP2;P2;SDS_P1;SDS_P2;PMS_P1;PMS_P2;Temp;Humidity;BMP_temperature;BMP_pressure;BME280_temperature;BME280_humidity;BME280_pressure;Samples;Min_cycle;Max_cycle;Signal;HPM_P1;HPM_P2
2022/07/04 00:01:28;;;;;;;1.47;1.00;;;;;;;18.95;61.73;101059.59;4984242;28;20212;-84
2022/07/04 00:03:55;;;;;;;1.20;1.03;;;;;;;18.93;61.69;101063.41;4986590;28;20205;-84
2022/07/04 00:06:23;;;;;;;0.90;0.73;;;;;;;18.89;61.73;101065.53;4991260;28;20209;-83
2022/07/04 00:08:49;;;;;;;1.20;0.87;;;;;;;18.87;61.90;101054.03;4993877;28;20220;-84
2022/07/04 00:11:16;;;;;;;1.93;0.87;;;;;;;18.85;62.10;101063.25;4994172;28;20585;-84
2022/07/04 00:13:42;;;;;;;0.90;0.80;;;;;;;18.83;62.23;101057.13;4991170;28;20283;-84
2022/07/04 00:16:09;;;;;;;2.93;0.80;;;;;;;18.81;62.12;101059.97;4998639;28;20223;-84
2022/07/04 00:18:35;;;;;;;1.63;0.90;;;;;;;18.79;62.18;101064.69;4993882;28;20229;-84
2022/07/04 00:21:02;;;;;;;1.63;1.03;;;;;;;18.75;62.35;101067.78;4999421;28;20210;-84
2022/07/04 00:23:30;;;;;;;1.13;1.00;;;;;;;18.70;62.47;101066.34;4994788;28;20677;-83
2022/07/04 00:25:56;;;;;;;1.73;0.80;;;;;;;18.66;62.47;101067.63;4982543;28;20201;-84
2022/07/04 00:28:23;;;;;;;0.80;0.80;;;;;;;18.61;62.42;101063.66;4980819;28;20232;-84
2022/07/04 00:30:49;;;;;;;2.63;1.00;;;;;;;18.56;62.62;101074.81;4987484;28;20213;-83
2022/07/04 00:33:16;;;;;;;3.10;1.47;;;;;;;18.51;62.70;101079.75;4983638;28;20216;-83
2022/07/04 00:35:42;;;;;;;1.77;0.77;;;;;;;18.48;62.99;101065.69;4988859;28;20227;-84
2022/07/04 00:38:09;;;;;;;1.33;0.80;;;;;;;18.46;63.00;101081.16;4988987;28;20231;-83
2022/07/04 00:40:39;;;;;;;0.60;0.60;;;;;;;18.43;62.87;101070.66;4985371;28;20200;-84
2022/07/04 00:43:06;;;;;;;1.30;0.70;;;;;;;18.41;62.87;101065.41;4986004;28;20220;-83
2022/07/04 00:45:33;;;;;;;1.37;0.80;;;;;;;18.39;62.87;101064.69;4986611;28;20226;-83
2022/07/04 00:47:59;;;;;;;2.90;0.90;;;;;;;18.38;63.11;101066.53;4987298;28;20221;-83
2022/07/04 00:50:27;;;;;;;0.70;0.70;;;;;;;18.35;63.09;101065.94;4987706;28;20212;-84
2022/07/04 00:52:54;;;;;;;0.90;0.80;;;;;;;18.34;63.26;101075.03;4987925;28;20224;-84
2022/07/04 00:55:22;;;;;;;0.73;0.70;;;;;;;18.33;63.51;101070.63;4991172;28;20230;-84
2022/07/04 00:57:50;;;;;;;2.30;1.00;;;;;;;18.31;63.45;101072.59;4983449;28;20231;-84
2022/07/04 01:00:18;;;;;;;1.17;0.90;;;;;;;18.29;63.54;101072.72;4990752;28;20715;-84
2022/07/04 01:02:45;;;;;;;1.33;0.97;;;;;;;18.26;63.59;101075.72;4989182;28;20213;-84
2022/07/04 01:05:12;;;;;;;3.43;0.97;;;;;;;18.25;63.63;101075.88;4988924;28;20217;-83
2022/07/04 01:07:38;;;;;;;1.90;0.90;;;;;;;18.21;63.51;101083.38;4985051;28;20232;-84
2022/07/04 01:10:05;;;;;;;1.03;0.93;;;;;;;18.18;63.87;101072.00;4986505;28;20633;-84
2022/07/04 01:12:32;;;;;;;2.63;1.30;;;;;;;18.17;64.06;101064.88;4986392;28;20205;-84
2022/07/04 01:15:00;;;;;;;2.27;0.70;;;;;;;18.14;64.19;101062.47;4982487;28;20221;-83
2022/07/04 01:17:27;;;;;;;1.57;0.80;;;;;;;18.12;64.21;101067.13;4984669;28;20261;-83
2022/07/04 01:19:53;;;;;;;1.43;0.83;;;;;;;18.10;64.48;101069.09;4985739;28;20308;-84
2022/07/04 01:22:22;;;;;;;1.20;0.77;;;;;;;18.07;64.66;101069.41;4992096;28;20216;-84
2022/07/04 01:24:49;;;;;;;0.80;0.80;;;;;;;18.06;64.89;101062.31;4981730;28;20626;-84
2022/07/04 01:27:16;;;;;;;1.07;1.00;;;;;;;18.03;64.59;101068.81;4984458;28;20241;-84
2022/07/04 01:29:42;;;;;;;2.20;0.90;;;;;;;17.98;64.69;101069.22;4984767;28;20214;-83
2022/07/04 01:32:10;;;;;;;1.33;0.80;;;;;;;17.92;64.94;101066.19;4986152;28;20218;-84
2022/07/04 01:34:38;;;;;;;1.30;1.00;;;;;;;17.86;65.15;101067.59;4984911;28;20261;-84
2022/07/04 01:37:06;;;;;;;1.57;0.97;;;;;;;17.83;65.33;101067.84;4986571;28;20210;-83
2022/07/04 01:39:34;;;;;;;0.93;0.83;;;;;;;17.79;65.62;101066.41;4985957;28;20206;-84
2022/07/04 01:42:00;;;;;;;1.67;1.10;;;;;;;17.76;65.88;101066.66;4988058;28;20207;-83
2022/07/04 01:44:27;;;;;;;2.43;1.03;;;;;;;17.75;65.90;101080.28;4987443;28;20232;-83
2022/07/04 01:46:53;;;;;;;1.10;0.80;;;;;;;17.72;65.82;101081.41;4987706;28;20202;-84
2022/07/04 01:49:20;;;;;;;2.07;1.00;;;;;;;17.71;66.01;101071.63;4986905;28;20215;-84
2022/07/04 01:51:47;;;;;;;1.77;1.10;;;;;;;17.65;65.84;101067.63;4985438;28;20202;-83
2022/07/04 01:54:13;;;;;;;1.67;1.00;;;;;;;17.63;65.87;101068.69;4991010;28;20209;-84
2022/07/04 01:56:42;;;;;;;1.10;1.00;;;;;;;17.59;66.15;101081.56;4989049;28;20211;-84
2022/07/04 01:59:08;;;;;;;1.60;0.97;;;;;;;17.55;66.25;101080.16;4987982;28;20234;-83
2022/07/04 02:01:34;;;;;;;2.50;1.30;;;;;;;17.52;66.19;101084.94;4991163;28;20207;-84
2022/07/04 02:04:02;;;;;;;1.53;1.00;;;;;;;17.47;66.47;101076.38;4988003;28;20208;-83
2022/07/04 02:06:28;;;;;;;1.40;1.03;;;;;;;17.43;66.59;101067.72;4989025;28;20198;-84
2022/07/04 02:14:25;;;;;;;2.07;1.20;;;;;;;17.33;66.65;101064.97;4985670;28;21596;-83
2022/07/04 02:16:51;;;;;;;1.63;1.40;;;;;;;17.28;67.25;101067.19;4989974;28;20213;-83
2022/07/04 02:19:18;;;;;;;2.00;1.20;;;;;;;17.25;67.30;101066.59;4985940;28;20213;-83
2022/07/04 02:21:45;;;;;;;1.07;1.07;;;;;;;17.23;67.36;101068.53;4986444;28;20210;-84
2022/07/04 02:24:11;;;;;;;1.87;1.20;;;;;;;17.19;67.68;101067.97;4991067;28;20205;-83
2022/07/04 02:26:38;;;;;;;1.57;1.30;;;;;;;17.17;67.79;101074.47;4987301;28;20206;-83
2022/07/04 02:29:06;;;;;;;1.97;1.20;;;;;;;17.13;67.85;101075.69;4985820;28;20246;-83
2022/07/04 02:31:32;;;;;;;3.03;1.87;;;;;;;17.08;68.13;101069.84;4986428;28;20663;-83
2022/07/04 02:33:59;;;;;;;2.47;1.40;;;;;;;17.04;68.20;101069.22;4993942;28;20211;-83
2022/07/04 02:36:25;;;;;;;2.67;1.70;;;;;;;17.04;68.63;101079.16;4991719;28;20226;-83
2022/07/04 02:38:52;;;;;;;1.30;1.20;;;;;;;17.02;68.56;101076.59;4990467;28;20229;-83
2022/07/04 02:41:18;;;;;;;1.50;1.13;;;;;;;17.01;68.86;101080.28;4990065;28;20213;-83
2022/07/04 02:43:45;;;;;;;1.90;1.57;;;;;;;17.00;68.86;101089.34;4992785;28;20217;-84
2022/07/04 02:46:13;;;;;;;2.80;1.40;;;;;;;17.00;68.78;101083.94;4992198;28;20206;-84
2022/07/04 02:48:39;;;;;;;1.97;1.40;;;;;;;16.99;68.94;101093.00;4996754;28;20220;-84
2022/07/04 02:51:06;;;;;;;1.33;1.10;;;;;;;16.96;68.79;101090.56;4987997;28;20220;-84
2022/07/04 02:53:32;;;;;;;1.47;1.00;;;;;;;16.94;68.79;101092.53;4988560;28;20770;-84
2022/07/04 02:56:03;;;;;;;1.67;1.40;;;;;;;16.92;68.87;101098.03;4988100;28;20224;-84
2022/07/04 02:58:30;;;;;;;2.30;1.37;;;;;;;16.89;68.91;101097.41;4995137;28;20258;-84
2022/07/04 03:00:56;;;;;;;1.77;1.20;;;;;;;16.87;69.06;101094.00;4985099;28;20220;-84
2022/07/04 03:03:24;;;;;;;2.20;1.20;;;;;;;16.84;69.05;101103.19;4986198;28;20209;-84
2022/07/04 03:05:51;;;;;;;1.47;1.27;;;;;;;16.82;69.40;101102.47;4986195;28;20236;-84
2022/07/04 03:08:18;;;;;;;1.67;1.10;;;;;;;16.79;69.59;101101.88;4987980;28;20239;-84
2022/07/04 03:10:44;;;;;;;1.63;1.10;;;;;;;16.80;69.97;101106.28;4989894;28;20200;-84
2022/07/04 03:13:11;;;;;;;1.30;1.20;;;;;;;16.78;69.55;101116.28;4981175;28;20220;-83
2022/07/04 03:15:37;;;;;;;1.87;1.47;;;;;;;16.78;69.79;101111.78;4994372;28;20233;-84
2022/07/04 03:18:04;;;;;;;3.23;1.20;;;;;;;16.78;69.68;101116.28;4991354;28;20538;-84
2022/07/04 03:20:32;;;;;;;2.87;1.50;;;;;;;16.76;69.99;101116.41;4995165;28;20247;-83
2022/07/04 03:22:58;;;;;;;1.70;1.60;;;;;;;16.75;70.00;101121.91;4991666;28;20601;-84
2022/07/04 03:25:25;;;;;;;1.67;1.30;;;;;;;16.73;69.91;101130.09;4991088;28;20228;-83
2022/07/04 03:27:51;;;;;;;1.40;1.30;;;;;;;16.69;69.84;101134.03;4987608;28;20577;-84
2022/07/04 03:30:18;;;;;;;2.00;1.70;;;;;;;16.66;70.13;101139.66;4990657;28;20211;-84
2022/07/04 03:32:44;;;;;;;2.80;1.50;;;;;;;16.63;70.41;101129.16;4991867;28;20655;-83
2022/07/04 03:35:11;;;;;;;2.43;1.50;;;;;;;16.61;70.48;101126.56;4989039;28;20225;-83
2022/07/04 03:37:39;;;;;;;3.30;1.67;;;;;;;16.60;70.71;101132.91;4995636;28;20251;-83
2022/07/04 03:40:07;;;;;;;3.50;1.40;;;;;;;16.59;70.64;101135.72;4990016;28;20730;-84
2022/07/04 03:42:33;;;;;;;2.00;1.47;;;;;;;16.58;71.14;101131.31;4995217;28;20499;-85
2022/07/04 03:45:00;;;;;;;1.83;1.20;;;;;;;16.56;71.03;101144.91;4994620;28;20213;-84
2022/07/04 03:47:26;;;;;;;1.33;1.23;;;;;;;16.56;71.32;101142.22;4997262;28;20987;-83
2022/07/04 03:49:53;;;;;;;1.27;1.17;;;;;;;16.56;71.49;101142.22;4990504;28;20209;-83
2022/07/04 03:52:20;;;;;;;2.43;1.13;;;;;;;16.57;71.18;101151.97;4989708;28;20204;-81
2022/07/04 03:54:47;;;;;;;1.57;1.27;;;;;;;16.58;71.38;101153.69;4995419;28;20205;-83
2022/07/04 03:57:14;;;;;;;2.07;1.50;;;;;;;16.57;71.60;101154.66;4989849;28;20667;-83
2022/07/04 03:59:41;;;;;;;4.33;1.57;;;;;;;16.57;71.60;101146.59;4995201;28;20215;-83
2022/07/04 04:02:07;;;;;;;2.50;1.60;;;;;;;16.58;71.65;101155.53;4986030;28;20212;-83
2022/07/04 04:07:18;;;;;;;1.57;1.20;;;;;;;16.59;71.63;101160.78;4991250;28;20381;-83
2022/07/04 04:09:44;;;;;;;1.40;1.20;;;;;;;16.61;71.87;101158.84;4984731;28;20207;-83
2022/07/04 04:12:12;;;;;;;1.53;1.37;;;;;;;16.63;71.59;101148.84;4989631;28;20215;-84
2022/07/04 04:14:39;;;;;;;7.13;2.00;;;;;;;16.63;71.42;101158.75;4996155;28;21030;-84
2022/07/04 04:17:05;;;;;;;8.07;2.87;;;;;;;16.60;71.26;101154.44;4986185;28;20236;-83
2022/07/04 04:19:32;;;;;;;11.00;2.27;;;;;;;16.55;71.28;101162.00;4988757;28;20651;-84
2022/07/04 04:21:59;;;;;;;9.37;3.00;;;;;;;16.49;71.43;101165.16;4988192;28;20590;-83
2022/07/04 04:24:26;;;;;;;5.47;2.30;;;;;;;16.43;71.72;101170.19;4989283;28;20213;-84
2022/07/04 04:26:52;;;;;;;4.70;2.20;;;;;;;16.35;72.39;101162.72;4982279;28;20272;-84
2022/07/04 04:29:20;;;;;;;5.43;2.27;;;;;;;16.32;72.84;101177.28;4985049;28;20208;-85
2022/07/04 04:31:47;;;;;;;3.57;1.83;;;;;;;16.31;73.42;101172.00;4985492;28;20307;-84
2022/07/04 04:34:13;;;;;;;5.13;2.20;;;;;;;16.30;73.52;101179.22;4991065;28;20207;-84
2022/07/04 04:36:40;;;;;;;4.10;2.53;;;;;;;16.30;73.63;101179.22;4995206;28;20336;-85
2022/07/04 04:39:06;;;;;;;5.03;2.17;;;;;;;16.31;73.76;101182.75;4993141;28;20228;-84
2022/07/04 04:41:33;;;;;;;3.00;1.80;;;;;;;16.30;73.84;101179.22;4988686;28;20203;-84
2022/07/04 04:43:59;;;;;;;3.57;1.90;;;;;;;16.30;73.59;101183.78;4992357;28;20219;-83
2022/07/04 04:46:27;;;;;;;4.47;2.20;;;;;;;16.28;73.78;101191.94;4989228;28;20211;-84
2022/07/04 04:48:54;;;;;;;3.17;2.20;;;;;;;16.27;73.97;101186.69;4990885;28;20314;-85
2022/07/04 04:51:21;;;;;;;3.80;2.00;;;;;;;16.27;74.10;101186.69;4991724;28;20206;-85
2022/07/04 04:53:47;;;;;;;3.00;2.20;;;;;;;16.28;74.28;101188.41;4987973;28;20205;-84
2022/07/04 04:56:14;;;;;;;4.63;2.50;;;;;;;16.29;74.19;101192.81;4986020;28;20235;-83
2022/07/04 04:58:40;;;;;;;3.77;2.30;;;;;;;16.30;74.47;101189.16;4985333;28;20326;-84
2022/07/04 05:01:07;;;;;;;3.60;2.13;;;;;;;16.32;74.55;101195.22;4987401;28;20268;-83
2022/07/04 05:03:35;;;;;;;5.50;2.60;;;;;;;16.33;74.69;101203.19;4986069;28;20208;-84
2022/07/04 05:06:01;;;;;;;4.33;2.00;;;;;;;16.35;74.80;101197.69;4992339;28;20201;-83
2022/07/04 05:08:28;;;;;;;5.13;2.40;;;;;;;16.37;74.53;101195.72;4986864;28;20238;-82
2022/07/04 05:10:55;;;;;;;3.23;2.13;;;;;;;16.40;74.75;101205.38;4988496;28;20207;-83
2022/07/04 05:13:21;;;;;;;5.20;2.20;;;;;;;16.40;74.77;101205.38;4991333;28;20584;-83
2022/07/04 05:15:48;;;;;;;5.43;2.80;;;;;;;16.41;74.84;101215.16;4995065;28;21163;-83
2022/07/04 05:18:15;;;;;;;3.53;2.70;;;;;;;16.43;75.12;101210.53;4993257;28;20310;-83
2022/07/04 05:20:43;;;;;;;5.63;2.60;;;;;;;16.46;75.18;101216.53;4989611;28;20203;-84
2022/07/04 05:23:09;;;;;;;9.77;3.13;;;;;;;16.50;75.45;101217.13;4992128;28;20220;-85
2022/07/04 05:25:36;;;;;;;5.90;2.77;;;;;;;16.56;75.67;101206.75;4984201;28;20212;-86
2022/07/04 05:28:02;;;;;;;5.40;3.10;;;;;;;16.65;76.11;101211.44;4996803;28;20282;-85
2022/07/04 05:30:29;;;;;;;4.20;2.70;;;;;;;16.74;76.18;101217.03;4994719;28;20209;-85
2022/07/04 05:32:58;;;;;;;7.47;3.13;;;;;;;16.84;76.29;101215.34;4998759;28;20209;-86
2022/07/04 05:35:24;;;;;;;3.90;3.10;;;;;;;16.94;76.26;101214.47;4992157;28;20207;-86
2022/07/04 05:37:52;;;;;;;5.70;3.47;;;;;;;17.04;76.33;101214.56;4995775;28;20260;-85
2022/07/04 05:40:20;;;;;;;5.63;3.57;;;;;;;17.12;76.47;101214.78;4994093;28;20217;-84
2022/07/04 05:42:48;;;;;;;6.67;3.70;;;;;;;17.21;76.54;101205.94;4995539;28;20209;-84
2022/07/04 05:45:15;;;;;;;10.80;4.20;;;;;;;17.31;76.09;101214.13;4992805;28;20217;-86
2022/07/04 05:47:42;;;;;;;4.40;3.90;;;;;;;17.40;76.04;101213.38;4999279;28;20222;-86
2022/07/04 05:50:09;;;;;;;4.27;3.77;;;;;;;17.49;75.88;101203.69;4993650;28;20232;-86
2022/07/04 05:52:36;;;;;;;5.53;4.10;;;;;;;17.60;75.81;101211.72;4994360;28;20256;-86
2022/07/04 05:55:04;;;;;;;5.07;4.03;;;;;;;17.72;75.58;101204.47;4987491;28;20200;-87
2022/07/04 05:57:30;;;;;;;6.53;4.40;;;;;;;17.84;75.51;101209.69;5005722;28;20237;-88
2022/07/04 05:59:57;;;;;;;4.30;3.90;;;;;;;17.95;75.51;101211.44;4991734;28;20261;-87
2022/07/04 06:02:24;;;;;;;5.63;5.03;;;;;;;18.04;74.94;101210.69;4991544;28;20211;-88
2022/07/04 06:04:50;;;;;;;6.97;4.33;;;;;;;18.16;74.52;101214.16;4992654;28;20226;-87
2022/07/04 06:07:17;;;;;;;5.70;4.00;;;;;;;18.27;74.21;101206.00;5001892;28;20248;-86
2022/07/04 06:09:44;;;;;;;6.50;5.10;;;;;;;18.39;73.65;101210.31;4994592;28;20216;-86
2022/07/04 06:12:12;;;;;;;7.87;5.57;;;;;;;18.51;73.03;101211.09;4991882;28;20235;-88
2022/07/04 06:14:38;;;;;;;5.80;5.17;;;;;;;18.62;72.56;101203.81;4987484;28;20220;-87
2022/07/04 06:17:05;;;;;;;5.77;4.80;;;;;;;18.77;72.05;101209.69;4988459;28;20284;-87
2022/07/04 06:19:32;;;;;;;5.60;5.03;;;;;;;18.91;72.08;101205.75;4989541;28;20303;-86
2022/07/04 06:21:58;;;;;;;5.57;4.97;;;;;;;19.08;71.30;101203.22;4990079;28;20267;-87
2022/07/04 06:24:25;;;;;;;5.57;5.07;;;;;;;19.23;70.04;101200.13;4992500;28;20216;-86
2022/07/04 06:26:52;;;;;;;5.27;4.70;;;;;;;19.35;69.33;101205.25;4993991;28;20219;-86
2022/07/04 06:29:19;;;;;;;6.37;4.97;;;;;;;19.49;68.70;101200.47;4987475;28;20241;-87
2022/07/04 06:31:46;;;;;;;7.43;4.33;;;;;;;19.64;68.44;101193.66;4993044;28;20749;-87
2022/07/04 06:36:56;;;;;;;4.47;4.00;;;;;;;19.75;66.28;101198.91;4986640;28;20225;-86
2022/07/04 06:39:23;;;;;;;4.53;4.13;;;;;;;19.76;65.46;101200.63;4993563;28;20587;-87
2022/07/04 06:41:49;;;;;;;4.43;3.60;;;;;;;19.74;64.96;101199.91;4993633;28;20206;-87
2022/07/04 06:44:16;;;;;;;4.23;3.43;;;;;;;19.73;64.82;101199.06;4992065;28;20237;-87
2022/07/04 06:46:45;;;;;;;3.77;3.27;;;;;;;19.80;65.27;101202.06;4997326;28;20210;-87
2022/07/04 06:49:12;;;;;;;4.07;3.57;;;;;;;19.92;65.42;101200.03;4990593;28;20253;-87
2022/07/04 06:51:38;;;;;;;4.07;3.20;;;;;;;20.08;65.06;101201.16;5001351;28;20210;-86
2022/07/04 06:54:06;;;;;;;4.97;3.80;;;;;;;20.20;64.23;101198.31;4994410;28;20597;-87
2022/07/04 06:56:32;;;;;;;8.53;3.80;;;;;;;20.29;63.66;101197.41;4993815;28;20628;-87
2022/07/04 06:58:59;;;;;;;3.80;3.00;;;;;;;20.42;63.06;101211.53;4993202;28;20916;-87
2022/07/04 07:01:26;;;;;;;3.30;3.00;;;;;;;20.52;62.82;101206.91;4992811;28;20212;-87
2022/07/04 07:03:53;;;;;;;3.00;2.60;;;;;;;20.65;61.49;101199.31;4992456;28;20202;-86
2022/07/04 07:06:20;;;;;;;2.67;2.47;;;;;;;20.77;60.96;101206.25;5000051;28;20618;-88
2022/07/04 07:08:47;;;;;;;4.30;2.43;;;;;;;20.97;60.59;101203.44;5004338;28;20238;-88
2022/07/04 07:11:13;;;;;;;3.00;2.30;;;;;;;21.11;59.86;101198.38;4996297;28;20745;-87
2022/07/04 07:13:41;;;;;;;4.00;2.20;;;;;;;21.25;58.82;101202.44;5000708;28;20697;-88
2022/07/04 07:16:07;;;;;;;3.33;1.67;;;;;;;21.34;57.29;101192.53;4995814;28;20269;-87
2022/07/04 07:18:34;;;;;;;3.30;1.88;;;;;;;21.34;56.13;101204.22;5000229;28;20225;-88
2022/07/04 07:21:02;;;;;;;3.22;2.22;;;;;;;21.42;56.60;101206.19;4991567;28;20853;-88
2022/07/04 07:23:29;;;;;;;4.05;2.15;;;;;;;21.45;56.20;101205.88;4992335;28;20298;-87
2022/07/04 07:25:55;;;;;;;3.38;2.50;;;;;;;21.41;55.64;101202.63;4989092;28;20677;-87
2022/07/04 07:28:22;;;;;;;3.53;2.13;;;;;;;21.40;56.05;101200.06;4999741;28;20718;-88
2022/07/04 07:30:48;;;;;;;2.33;1.55;;;;;;;21.43;55.50;101203.31;4993985;28;20206;-87
2022/07/04 07:33:15;;;;;;;2.05;1.85;;;;;;;21.51;54.94;101207.94;4997934;28;20218;-86
2022/07/04 07:35:41;;;;;;;2.25;1.45;;;;;;;21.62;54.55;101212.31;4995133;28;20203;-87
2022/07/04 07:38:09;;;;;;;2.95;1.40;;;;;;;21.71;53.62;101212.22;4997833;28;20238;-87
2022/07/04 07:40:36;;;;;;;2.55;1.38;;;;;;;21.78;53.64;101212.44;4993752;28;20213;-87
2022/07/04 07:43:02;;;;;;;2.08;1.65;;;;;;;21.85;52.97;101207.28;4990105;28;20216;-87
2022/07/04 07:45:29;;;;;;;1.90;1.30;;;;;;;21.84;52.42;101203.72;4992666;28;20615;-88
2022/07/04 07:47:55;;;;;;;2.45;1.45;;;;;;;21.79;52.11;101203.31;4998991;28;20226;-88
2022/07/04 07:50:22;;;;;;;2.25;1.58;;;;;;;21.77;52.20;101208.88;4999756;28;20211;-87
2022/07/04 07:52:49;;;;;;;3.72;1.60;;;;;;;21.73;52.55;101214.78;4996131;28;20205;-88
2022/07/04 07:55:17;;;;;;;3.08;1.80;;;;;;;21.81;53.35;101213.00;4992461;28;20657;-88
2022/07/04 07:57:43;;;;;;;2.22;1.30;;;;;;;21.87;52.60;101210.66;5006416;28;20237;-86
2022/07/04 08:00:11;;;;;;;2.67;1.77;;;;;;;21.84;52.11;101214.56;5013141;28;20202;-88
2022/07/04 08:05:19;;;;;;;1.85;1.40;;;;;;;21.79;52.04;101214.16;4960035;28;20571;-87
2022/07/04 08:07:46;;;;;;;1.77;1.20;;;;;;;21.79;51.99;101212.31;4990343;28;20234;-88
2022/07/04 08:10:13;;;;;;;3.05;1.20;;;;;;;21.79;51.68;101211.44;4994788;28;20207;-86
2022/07/04 08:12:41;;;;;;;2.70;1.38;;;;;;;21.77;52.09;101203.47;4993757;28;20848;-88
2022/07/04 08:15:08;;;;;;;4.47;1.42;;;;;;;21.85;52.46;101201.84;4996602;28;20584;-87
2022/07/04 08:17:35;;;;;;;1.73;1.30;;;;;;;21.94;51.99;101196.31;4985495;28;20246;-87
2022/07/04 08:20:03;;;;;;;1.33;1.10;;;;;;;22.05;51.60;101187.94;4994177;28;20209;-88
2022/07/04 08:22:30;;;;;;;1.88;1.25;;;;;;;22.20;50.85;101199.09;4991481;28;20214;-87
2022/07/04 08:24:56;;;;;;;8.52;1.55;;;;;;;22.36;50.14;101184.78;4988640;28;20298;-87
2022/07/04 08:27:23;;;;;;;3.30;1.00;;;;;;;22.51;49.31;101178.59;4998673;28;20234;-88
2022/07/04 08:29:51;;;;;;;2.15;0.90;;;;;;;22.67;48.30;101180.53;4992337;28;20218;-87
2022/07/04 08:32:18;;;;;;;2.15;0.70;;;;;;;22.77;47.23;101178.56;4995412;28;20214;-88
2022/07/04 08:34:44;;;;;;;1.88;0.80;;;;;;;22.85;46.86;101186.75;4987081;28;20294;-87
2022/07/04 08:37:11;;;;;;;2.78;1.23;;;;;;;22.92;47.44;101194.25;4994289;28;20232;-87
2022/07/04 08:39:37;;;;;;;1.92;0.93;;;;;;;22.93;47.59;101198.69;4992897;28;20199;-87
2022/07/04 08:42:07;;;;;;;1.90;1.10;;;;;;;23.00;48.26;101189.69;4991602;28;20218;-87
2022/07/04 08:44:39;;;;;;;1.48;1.10;;;;;;;23.07;47.69;101190.75;4992066;28;20306;-87
2022/07/04 08:47:09;;;;;;;2.97;1.17;;;;;;;23.18;47.19;101192.28;4991697;28;20734;-87
2022/07/04 08:49:38;;;;;;;2.70;1.10;;;;;;;23.25;47.13;101189.78;4991172;28;20209;-86
2022/07/04 08:52:07;;;;;;;2.28;0.80;;;;;;;23.31;46.92;101189.94;4991959;28;20207;-87
2022/07/04 09:00:05;;;;;;;1.98;0.70;;;;;;;23.67;46.19;101186.97;4999136;28;20312;-87
2022/07/04 09:02:36;;;;;;;3.00;1.17;;;;;;;23.73;45.65;101198.03;4993796;28;20203;-88
2022/07/04 09:05:02;;;;;;;2.75;0.98;;;;;;;23.73;45.37;101203.47;4997647;28;20199;-87
2022/07/04 09:07:29;;;;;;;2.13;0.98;;;;;;;23.68;45.19;101202.25;4990634;28;20233;-87
2022/07/04 09:09:58;;;;;;;1.00;0.90;;;;;;;23.63;45.14;101208.22;5003519;28;20209;-87
2022/07/04 09:12:25;;;;;;;1.42;0.80;;;;;;;23.65;45.18;101208.88;5004264;28;20203;-87
2022/07/04 09:14:52;;;;;;;1.67;0.88;;;;;;;23.71;44.77;101204.66;4991775;28;20206;-86
2022/07/04 09:17:19;;;;;;;1.05;0.70;;;;;;;23.79;44.37;101202.78;4993005;28;20227;-86
2022/07/04 09:20:16;;;;;;;1.85;1.00;;;;;;;23.91;43.87;101197.84;4994989;28;20687;-87
2022/07/04 09:22:43;;;;;;;2.40;0.70;;;;;;;23.95;42.97;101196.50;4994615;28;20207;-86
2022/07/04 09:25:12;;;;;;;1.38;0.80;;;;;;;24.03;42.85;101185.59;4989105;28;20203;-87
2022/07/04 09:27:41;;;;;;;0.90;0.60;;;;;;;24.17;42.24;101195.81;4992520;28;20219;-86
2022/07/04 09:30:09;;;;;;;1.60;0.80;;;;;;;24.28;41.64;101200.06;4991360;28;20213;-87
2022/07/04 09:32:37;;;;;;;1.25;0.75;;;;;;;24.43;41.14;101192.03;4993059;28;20221;-87
2022/07/04 09:35:07;;;;;;;0.65;0.60;;;;;;;24.56;40.46;101190.44;4983813;28;20215;-87
2022/07/04 09:37:36;;;;;;;1.15;0.60;;;;;;;24.70;40.31;101179.88;4988185;28;20246;-87
2022/07/04 09:40:05;;;;;;;2.85;0.63;;;;;;;24.82;39.71;101195.66;4990631;28;20203;-86
2022/07/04 09:42:39;;;;;;;1.20;0.50;;;;;;;24.87;38.96;101192.41;4988621;28;20661;-86
2022/07/04 09:45:07;;;;;;;1.08;0.57;;;;;;;24.77;38.13;101187.16;4993479;28;20268;-87
2022/07/04 09:47:34;;;;;;;1.20;0.60;;;;;;;24.64;37.68;101186.88;4990192;28;20231;-86
2022/07/04 09:50:01;;;;;;;1.00;0.60;;;;;;;24.65;38.43;101182.28;4994157;28;20234;-88
2022/07/04 09:52:30;;;;;;;1.75;0.68;;;;;;;24.72;38.42;101181.38;4990317;28;20207;-86
2022/07/04 09:54:58;;;;;;;1.88;0.50;;;;;;;24.82;37.87;101179.31;4997128;28;20290;-87
2022/07/04 09:57:25;;;;;;;1.60;0.65;;;;;;;24.87;37.15;101186.97;4991806;28;20226;-86
2022/07/04 09:59:51;;;;;;;1.15;0.60;;;;;;;24.83;36.79;101189.19;4987525;28;20214;-87
2022/07/04 10:02:18;;;;;;;1.27;0.45;;;;;;;24.87;36.39;101184.22;4990035;28;20218;-87
2022/07/04 10:04:47;;;;;;;1.52;0.50;;;;;;;24.95;36.12;101180.63;4992653;28;20209;-87
2022/07/04 10:07:32;;;;;;;1.05;0.50;;;;;;;25.04;36.14;101180.44;4992672;28;20213;-87
2022/07/04 10:09:59;;;;;;;0.75;0.50;;;;;;;25.16;35.58;101179.00;4990558;28;20574;-87
2022/07/04 10:12:26;;;;;;;1.30;0.60;;;;;;;25.26;34.70;101170.56;4992856;28;20211;-87
2022/07/04 10:14:55;;;;;;;1.63;0.82;;;;;;;25.33;34.98;101170.72;5001255;28;20246;-88
2022/07/04 10:17:22;;;;;;;0.60;0.30;;;;;;;25.37;34.12;101167.44;4991055;28;20231;-87
2022/07/04 10:19:50;;;;;;;0.55;0.50;;;;;;;25.47;33.53;101172.66;4998844;28;20199;-87
2022/07/04 10:22:18;;;;;;;1.08;0.57;;;;;;;25.54;33.98;101160.84;4994832;28;20211;-87
2022/07/04 10:24:46;;;;;;;0.88;0.60;;;;;;;25.64;34.22;101166.06;4996390;28;20303;-87
2022/07/04 10:27:13;;;;;;;0.57;0.45;;;;;;;25.78;34.30;101165.31;4988347;28;20203;-87
2022/07/04 10:29:40;;;;;;;1.52;0.40;;;;;;;25.88;33.64;101167.75;4989869;28;20798;-87
2022/07/04 10:32:08;;;;;;;0.98;0.50;;;;;;;25.92;32.61;101161.75;4990633;28;20203;-87
2022/07/04 10:34:40;;;;;;;1.75;0.40;;;;;;;25.95;32.61;101166.00;4992864;28;20211;-87
2022/07/04 10:37:07;;;;;;;0.90;0.85;;;;;;;26.02;32.73;101160.63;4992262;28;20219;-87
2022/07/04 10:39:34;;;;;;;2.47;0.30;;;;;;;26.11;33.01;101165.84;4993477;28;20576;-87
2022/07/04 10:42:02;;;;;;;2.25;0.50;;;;;;;26.24;32.97;101154.28;4989496;28;20576;-87
2022/07/04 10:44:36;;;;;;;1.50;0.55;;;;;;;26.37;32.54;101150.91;4997626;28;20247;-87
2022/07/04 10:47:03;;;;;;;1.73;0.40;;;;;;;26.47;32.06;101148.75;4991950;28;20553;-87
2022/07/04 10:49:29;;;;;;;1.92;0.40;;;;;;;26.55;32.17;101143.19;4995548;28;20214;-88
2022/07/04 10:52:09;;;;;;;1.10;0.30;;;;;;;26.62;31.99;101146.88;4993039;28;20219;-87
2022/07/04 10:54:38;;;;;;;0.50;0.43;;;;;;;26.68;31.81;101146.13;4991133;28;20281;-87
2022/07/04 10:57:18;;;;;;;0.80;0.60;;;;;;;26.73;31.76;101140.91;4993731;28;20215;-87
2022/07/04 11:00:04;;;;;;;6.68;1.35;;;;;;;26.80;31.32;101141.84;4988464;28;20208;-87
2022/07/04 11:02:31;;;;;;;1.67;0.90;;;;;;;26.81;30.98;101138.09;4992921;28;20237;-87
2022/07/04 11:05:03;;;;;;;2.55;0.80;;;;;;;26.85;30.80;101141.28;4994203;28;20203;-87
2022/07/04 11:08:02;;;;;;;0.93;0.50;;;;;;;26.90;31.01;101138.81;4994281;28;20219;-87
2022/07/04 11:10:33;;;;;;;0.82;0.40;;;;;;;26.96;30.88;101149.84;5000097;28;20218;-87
2022/07/04 11:13:22;;;;;;;2.13;0.47;;;;;;;27.03;31.13;101140.91;4988852;28;20615;-87
2022/07/04 11:16:06;;;;;;;2.72;0.70;;;;;;;27.10;31.14;101136.34;4987199;28;20216;-87
2022/07/04 11:18:41;;;;;;;1.58;0.63;;;;;;;27.14;31.35;101133.03;4985116;28;20235;-87
2022/07/04 11:21:17;;;;;;;1.10;0.50;;;;;;;27.21;31.39;101128.50;4986836;28;20290;-87
2022/07/04 11:23:53;;;;;;;1.08;0.50;;;;;;;27.28;31.08;101129.38;4989569;28;20639;-87
2022/07/04 11:26:21;;;;;;;1.75;0.50;;;;;;;27.34;30.86;101127.78;4994374;28;20213;-87
2022/07/04 11:28:49;;;;;;;1.00;0.38;;;;;;;27.37;31.08;101123.81;4999715;28;20610;-87
2022/07/04 11:31:16;;;;;;;0.70;0.50;;;;;;;27.35;30.96;101126.72;4991987;28;20211;-88
2022/07/04 11:33:45;;;;;;;1.30;0.50;;;;;;;27.25;30.71;101126.19;4999709;28;20210;-87
2022/07/04 11:36:14;;;;;;;2.03;0.40;;;;;;;27.17;31.01;101120.88;4992417;28;20203;-87
2022/07/04 11:38:51;;;;;;;0.88;0.40;;;;;;;27.13;30.94;101119.53;4992435;28;20242;-87
2022/07/04 11:47:04;;;;;;;1.23;0.60;;;;;;;26.90;31.73;101117.78;4981393;28;20206;-87
2022/07/04 11:49:30;;;;;;;0.75;0.50;;;;;;;26.86;31.70;101123.84;5002131;28;20218;-88
2022/07/04 11:51:57;;;;;;;1.65;0.57;;;;;;;26.90;31.47;101122.41;4991552;28;20255;-87